»·PEaware :: N1876Z KIFP-KTRM

N1876Z :: KIFP-KTRM

FLIGHT INFORMATION

Flight Status: Arrived
Operator: Privately registered:
United States
More flights under this callsign
Pilot: Jay Z. (18662)
Aircraft: Unknown
(SF50)
More flights by this aircraft type
Origin: KIFP Laughlin/Bullhead Intl
United States
Destination: KTRM Desert Resorts Regl
United States
More flights between these airports :: More routes between these airports
Route: DCT
File this flight plan on PilotEdge
Remarks:
Altitude:
(Current/Filed)
16,500ft
Speed:
(Current/Filed)
350kts
Departed: 03-Jun-18 11:00 AM
Arrived: 03-Jun-18 11:34 AM
Distance/Time
Traveled:
121nm/0:34
Distance/Time
To Go:
Arrived

Flight Plot

Page will automatically refresh every two minutes.

Flight plan parsing failed; only flown route is shown


Map Options




Map Legend


Flown Route
Filed Route
Departure Airport
Arrival Airport
Navaid (VOR, NDB)
Fix

Horizontal Profiles

Position Reports

Time Latitude Longitude Heading Altitude Ground
Speed
03-Jun-18 10:48 35.159758 -114.556367 266 679ft 0kts
03-Jun-18 10:51 35.159758 -114.556367 266 679ft 0kts
03-Jun-18 10:52 35.159758 -114.556367 266 679ft 0kts
03-Jun-18 10:53 35.159758 -114.556367 266 679ft 0kts
03-Jun-18 10:54 35.159758 -114.556367 266 679ft 0kts
03-Jun-18 10:55 35.159758 -114.556367 266 679ft 0kts
03-Jun-18 10:56 35.156388 -114.556397 181 686ft 24kts
03-Jun-18 10:57 35.149923 -114.557633 177 683ft 38kts
03-Jun-18 10:58 35.145860 -114.557716 260 695ft 0kts
03-Jun-18 10:59 35.145853 -114.557908 268 694ft 9kts
03-Jun-18 11:00 35.170480 -114.561191 346 1286ft 167kts
03-Jun-18 11:01 35.160608 -114.592138 204 3199ft 150kts
03-Jun-18 11:02 35.127837 -114.622557 220 6077ft 152kts
03-Jun-18 11:03 35.095890 -114.656461 222 8779ft 154kts
03-Jun-18 11:04 35.066049 -114.688095 223 11229ft 146kts
03-Jun-18 11:05 35.025040 -114.733654 223 11930ft 246kts
03-Jun-18 11:06 34.970316 -114.790495 219 12479ft 293kts
03-Jun-18 11:07 34.919742 -114.868042 260 12977ft 310kts
03-Jun-18 11:08 34.894146 -114.964419 249 13455ft 318kts
03-Jun-18 11:09 34.854509 -115.061644 241 13950ft 322kts
03-Jun-18 11:10 34.812564 -115.157594 241 14452ft 322kts
03-Jun-18 11:11 34.751851 -115.232750 212 14949ft 315kts
03-Jun-18 11:12 34.678399 -115.289727 210 15451ft 314kts
03-Jun-18 11:13 34.606577 -115.350056 214 15951ft 313kts
03-Jun-18 11:14 34.536779 -115.412477 214 16452ft 312kts
03-Jun-18 11:15 34.464222 -115.470715 210 16722ft 317kts
03-Jun-18 11:16 34.389689 -115.529525 212 16720ft 324kts
03-Jun-18 11:17 34.317021 -115.594043 214 16505ft 315kts
03-Jun-18 11:18 34.248676 -115.650465 210 15625ft 299kts
03-Jun-18 11:19 34.175947 -115.707937 213 14651ft 333kts
03-Jun-18 11:20 34.098193 -115.773339 212 13456ft 332kts
03-Jun-18 11:21 34.025226 -115.834319 212 12228ft 311kts
03-Jun-18 11:22 33.956342 -115.890185 211 10789ft 276kts
03-Jun-18 11:23 33.896606 -115.937393 212 9071ft 248kts
03-Jun-18 11:24 33.842280 -115.984062 215 7362ft 234kts
03-Jun-18 11:25 33.790860 -116.027520 214 5650ft 221kts
03-Jun-18 11:26 33.731851 -116.037152 183 3951ft 215kts
03-Jun-18 11:27 33.675640 -116.021220 164 2287ft 210kts
03-Jun-18 11:28 33.624125 -116.030528 218 2243ft 190kts
03-Jun-18 11:29 33.616465 -116.092336 288 1508ft 207kts
03-Jun-18 11:30 33.649189 -116.143821 357 993ft 204kts
03-Jun-18 11:31 33.687609 -116.147987 258 1687ft 97kts
03-Jun-18 11:32 33.661694 -116.156352 180 651ft 98kts
03-Jun-18 11:33 33.636226 -116.156424 180 -93ft 77kts
03-Jun-18 11:34 33.626768 -116.155499 90 -115ft 0kts
03-Jun-18 11:35 33.626979 -116.154761 2 -116ft 0kts
03-Jun-18 11:36 33.626979 -116.154761 2 -116ft 0kts
03-Jun-18 11:37 33.626979 -116.154761 2 -116ft 0kts
03-Jun-18 11:38 33.626979 -116.154761 2 -116ft 0kts
03-Jun-18 11:39 33.626979 -116.154761 2 -116ft 0kts
03-Jun-18 11:40 33.626979 -116.154761 2 -116ft 0kts
03-Jun-18 11:41 33.626979 -116.154761 2 -116ft 0kts
03-Jun-18 11:42 33.626979 -116.154761 2 -116ft 0kts
03-Jun-18 11:43 33.626979 -116.154761 2 -116ft 0kts
03-Jun-18 11:44 33.626979 -116.154761 2 -116ft 0kts
03-Jun-18 11:45 33.626979 -116.154761 2 -116ft 0kts
03-Jun-18 11:46 33.626979 -116.154761 2 -116ft 0kts
03-Jun-18 11:47 33.626979 -116.154761 2 -116ft 0kts
03-Jun-18 11:48 33.626979 -116.154761 2 -116ft 0kts

Navigation Log

Ident Type
Flight plan parsing failed, navigation log unavailable